createdAt,value
2022-11-24T00:01:34.506Z,24.70
2022-11-24T00:04:06.938Z,27.70
2022-11-24T00:06:37.011Z,23.10
2022-11-24T00:09:10.115Z,21.00
2022-11-24T00:11:39.347Z,27.10
2022-11-24T00:14:08.442Z,26.00
2022-11-24T00:16:39.140Z,24.20
2022-11-24T00:19:10.298Z,24.90
2022-11-24T00:21:39.715Z,25.60
2022-11-24T00:24:08.907Z,27.50
2022-11-24T00:26:38.381Z,21.30
2022-11-24T00:29:08.633Z,22.40
2022-11-24T00:31:41.263Z,24.70
2022-11-24T00:34:15.561Z,26.40
2022-11-24T00:36:45.274Z,26.60
2022-11-24T00:39:16.900Z,27.00
2022-11-24T00:41:46.341Z,17.70
2022-11-24T00:44:15.725Z,24.70
2022-11-24T00:46:45.170Z,22.40
2022-11-24T00:49:14.597Z,25.90
2022-11-24T00:51:43.926Z,28.60
2022-11-24T00:54:13.241Z,29.30
2022-11-24T00:56:42.304Z,21.30
2022-11-24T00:59:11.354Z,25.70
2022-11-24T01:01:40.458Z,26.80
2022-11-24T01:04:09.803Z,15.20
2022-11-24T01:06:38.846Z,26.30
2022-11-24T01:09:07.900Z,18.10
2022-11-24T01:11:55.579Z,24.50
2022-11-24T01:14:26.275Z,26.90
2022-11-24T01:16:55.889Z,23.20
2022-11-24T01:19:25.097Z,24.70
2022-11-24T01:21:54.310Z,27.30
2022-11-24T01:24:23.604Z,28.10
2022-11-24T01:26:52.633Z,28.70
2022-11-24T01:29:21.927Z,27.00
2022-11-24T01:31:51.234Z,28.10
2022-11-24T01:34:20.556Z,28.90
2022-11-24T01:36:49.886Z,28.00
2022-11-24T01:39:19.145Z,24.60
2022-11-24T01:41:48.251Z,29.10
2022-11-24T01:44:27.530Z,27.80
2022-11-24T01:47:37.018Z,26.20
2022-11-24T01:50:09.689Z,25.40
2022-11-24T01:52:53.234Z,27.10
2022-11-24T01:55:30.419Z,24.60
2022-11-24T01:58:08.301Z,27.90
2022-11-24T02:00:40.571Z,28.20
2022-11-24T02:03:11.645Z,25.80
2022-11-24T02:05:51.912Z,25.00
2022-11-24T02:08:47.805Z,27.70
2022-11-24T02:11:17.428Z,26.50
2022-11-24T02:13:48.500Z,26.10
2022-11-24T02:16:18.052Z,24.50
2022-11-24T02:18:47.454Z,26.90
2022-11-24T02:21:18.557Z,25.80
2022-11-24T02:24:17.756Z,25.40
2022-11-24T02:26:50.307Z,26.90
2022-11-24T02:29:21.544Z,26.90
2022-11-24T02:32:02.671Z,27.00
2022-11-24T02:34:32.284Z,27.10
2022-11-24T02:37:01.723Z,23.40
2022-11-24T02:39:30.966Z,25.20
2022-11-24T02:42:06.195Z,17.50
2022-11-24T02:44:41.793Z,27.10
2022-11-24T02:47:13.604Z,26.70
2022-11-24T02:49:42.971Z,27.00
2022-11-24T02:52:12.108Z,26.50
2022-11-24T02:54:41.559Z,27.00
2022-11-24T02:57:11.699Z,24.70
2022-11-24T02:59:40.801Z,28.50
2022-11-24T03:02:11.040Z,25.70
2022-11-24T03:04:40.150Z,28.80
2022-11-24T03:07:10.231Z,26.50
2022-11-24T03:09:39.260Z,27.40
2022-11-24T03:12:08.686Z,28.20
2022-11-24T03:14:37.761Z,29.70
2022-11-24T03:17:07.625Z,25.50
2022-11-24T03:19:36.566Z,27.50
2022-11-24T03:22:05.668Z,26.30
2022-11-24T03:24:34.879Z,31.20
2022-11-24T03:27:04.459Z,30.50
2022-11-24T03:29:33.699Z,30.80
2022-11-24T03:32:03.320Z,27.30
2022-11-24T03:34:32.693Z,28.00
2022-11-24T03:37:02.080Z,30.50
2022-11-24T03:39:31.155Z,25.40
2022-11-24T03:42:00.184Z,24.20
2022-11-24T03:44:29.293Z,25.10
2022-11-24T03:46:58.443Z,27.40
2022-11-24T03:49:27.542Z,26.30
2022-11-24T03:51:56.585Z,23.20
2022-11-24T03:54:25.919Z,24.30
2022-11-24T03:56:54.972Z,29.90
2022-11-24T03:59:24.039Z,22.80
2022-11-24T04:01:53.060Z,19.90
2022-11-24T04:04:21.998Z,23.20
2022-11-24T04:06:50.952Z,22.40
2022-11-24T04:09:19.925Z,30.90
2022-11-24T04:12:07.553Z,28.80
2022-11-24T04:14:36.853Z,28.20
2022-11-24T04:17:07.252Z,28.50
2022-11-24T04:19:36.385Z,28.00
2022-11-24T04:22:05.456Z,20.20
2022-11-24T04:24:34.819Z,28.60
2022-11-24T04:27:04.277Z,27.90
2022-11-24T04:29:33.517Z,24.60
2022-11-24T04:32:02.679Z,22.10
2022-11-24T04:34:32.290Z,27.70
2022-11-24T04:37:01.559Z,27.70
2022-11-24T04:39:30.534Z,25.00
2022-11-24T04:42:00.074Z,29.80
2022-11-24T04:44:29.177Z,27.10
2022-11-24T04:46:58.208Z,28.40
2022-11-24T04:49:27.361Z,27.90
2022-11-24T04:51:56.348Z,28.00
2022-11-24T04:54:25.360Z,27.60
2022-11-24T04:56:54.512Z,31.40
2022-11-24T04:59:23.532Z,29.70
2022-11-24T05:01:52.695Z,26.90
2022-11-24T05:04:22.327Z,29.00
2022-11-24T05:06:51.466Z,27.90
2022-11-24T05:09:20.459Z,29.00
2022-11-24T05:11:49.485Z,29.30
2022-11-24T05:14:18.523Z,30.90
2022-11-24T05:16:47.644Z,27.50
2022-11-24T05:19:16.892Z,28.30
2022-11-24T05:21:45.760Z,19.20
2022-11-24T05:24:14.999Z,24.30
2022-11-24T05:26:44.114Z,28.00
2022-11-24T05:29:13.341Z,22.00
2022-11-24T05:31:42.378Z,27.20
2022-11-24T05:34:11.530Z,28.50
2022-11-24T05:36:56.747Z,29.10
2022-11-24T05:39:25.823Z,27.20
2022-11-24T05:41:54.709Z,23.90
2022-11-24T05:44:23.617Z,23.40
2022-11-24T05:46:52.583Z,27.30
2022-11-24T05:49:21.615Z,28.00
2022-11-24T05:51:50.518Z,24.50
2022-11-24T05:54:19.549Z,29.50
2022-11-24T05:56:48.377Z,16.60
2022-11-24T05:59:17.068Z,24.80
2022-11-24T06:01:45.906Z,27.20
2022-11-24T06:04:14.845Z,31.40
2022-11-24T06:06:43.648Z,32.20
2022-11-24T06:09:12.359Z,28.00
2022-11-24T06:11:41.127Z,27.30
2022-11-24T06:14:11.633Z,24.90
2022-11-24T06:16:41.159Z,23.00
2022-11-24T06:19:11.849Z,29.40
2022-11-24T06:21:40.703Z,27.80
2022-11-24T06:24:09.801Z,27.80
2022-11-24T06:26:38.528Z,28.20
2022-11-24T06:29:07.507Z,42.80
2022-11-24T06:31:36.676Z,40.80
2022-11-24T06:34:11.968Z,38.90
2022-11-24T06:36:41.114Z,37.50
2022-11-24T06:39:11.138Z,33.30
2022-11-24T06:41:39.958Z,26.30
2022-11-24T06:44:09.047Z,27.00
2022-11-24T06:46:38.332Z,27.50
2022-11-24T06:49:07.064Z,27.80
2022-11-24T06:51:36.137Z,30.60
2022-11-24T06:54:11.020Z,29.50
2022-11-24T06:56:40.111Z,33.70
2022-11-24T06:59:19.229Z,28.50
2022-11-24T07:01:48.160Z,31.30
2022-11-24T07:04:17.206Z,27.90
2022-11-24T07:06:46.444Z,30.00
2022-11-24T07:09:15.284Z,30.20
2022-11-24T07:11:44.357Z,25.60
2022-11-24T07:14:13.104Z,29.00
2022-11-24T07:16:41.852Z,28.80
2022-11-24T07:19:11.515Z,30.40
2022-11-24T07:21:40.255Z,31.10
2022-11-24T07:24:09.334Z,21.70
2022-11-24T07:26:38.286Z,31.90
2022-11-24T07:29:07.180Z,30.50
2022-11-24T07:31:35.876Z,31.30
2022-11-24T07:34:04.720Z,31.90
2022-11-24T07:36:33.402Z,32.90
2022-11-24T07:39:02.135Z,31.80
2022-11-24T07:41:30.922Z,33.10
2022-11-24T07:43:59.777Z,33.90
2022-11-24T07:46:29.255Z,33.30
2022-11-24T07:48:58.605Z,32.50
2022-11-24T07:52:00.596Z,32.30
2022-11-24T07:54:29.746Z,30.40
2022-11-24T07:57:01.731Z,34.90
2022-11-24T07:59:41.647Z,32.00
2022-11-24T08:02:14.180Z,31.60
2022-11-24T08:04:43.128Z,30.80
2022-11-24T08:07:12.146Z,29.40
2022-11-24T08:09:41.164Z,32.90
2022-11-24T08:12:10.170Z,31.90
2022-11-24T08:14:38.965Z,31.10
2022-11-24T08:17:07.758Z,31.10
2022-11-24T08:19:36.545Z,33.20
2022-11-24T08:22:05.280Z,32.70
2022-11-24T08:24:35.174Z,31.10
2022-11-24T08:27:04.806Z,32.60
2022-11-24T08:29:33.737Z,32.10
2022-11-24T08:32:02.451Z,32.20
2022-11-24T08:34:31.832Z,35.30
2022-11-24T08:37:00.736Z,34.60
2022-11-24T08:39:29.528Z,35.50
2022-11-24T08:41:58.498Z,35.90
2022-11-24T08:44:29.045Z,36.20
2022-11-24T08:46:57.778Z,33.50
2022-11-24T08:49:26.851Z,36.80
2022-11-24T08:51:58.182Z,34.70
2022-11-24T08:54:27.145Z,35.10
2022-11-24T08:56:56.028Z,34.00
2022-11-24T08:59:24.888Z,33.90
2022-11-24T09:01:53.783Z,36.40
2022-11-24T09:04:22.727Z,36.60
2022-11-24T09:06:51.772Z,35.20
2022-11-24T09:09:20.526Z,34.90
2022-11-24T09:11:49.283Z,33.20
2022-11-24T09:14:18.158Z,31.90
2022-11-24T09:16:47.064Z,31.40
2022-11-24T09:19:15.871Z,33.30
2022-11-24T09:21:44.708Z,36.70
2022-11-24T09:24:13.547Z,32.50
2022-11-24T09:26:47.320Z,28.90
2022-11-24T09:29:17.525Z,23.50
2022-11-24T09:31:46.389Z,29.20
2022-11-24T09:34:16.312Z,29.50
2022-11-24T09:36:45.119Z,30.70
2022-11-24T09:39:14.089Z,29.30
2022-11-24T09:42:25.820Z,33.90
2022-11-24T09:45:00.567Z,30.10
2022-11-24T09:47:50.141Z,31.00
2022-11-24T09:50:34.705Z,30.90
2022-11-24T09:53:09.752Z,27.90
2022-11-24T09:55:48.965Z,30.80
2022-11-24T09:58:43.005Z,32.70
2022-11-24T10:01:29.085Z,30.80
2022-11-24T10:04:04.302Z,28.30
2022-11-24T10:07:33.040Z,30.40
2022-11-24T10:10:09.788Z,29.00
2022-11-24T10:13:10.926Z,27.40
2022-11-24T10:16:04.751Z,22.30
2022-11-24T10:18:46.356Z,28.10
2022-11-24T10:21:17.965Z,28.30
2022-11-24T10:24:18.834Z,26.00
2022-11-24T10:26:59.613Z,22.30
2022-11-24T10:29:40.876Z,25.70
2022-11-24T10:32:24.832Z,27.00
2022-11-24T10:35:15.004Z,26.30
2022-11-24T10:38:07.522Z,27.60
2022-11-24T10:40:57.316Z,27.40
2022-11-24T10:43:29.343Z,25.10
2022-11-24T10:46:20.221Z,27.50
2022-11-24T10:48:57.782Z,26.90
2022-11-24T10:52:14.341Z,26.90
2022-11-24T10:54:59.297Z,26.60
2022-11-24T10:57:40.748Z,22.40
2022-11-24T11:00:24.522Z,27.60
2022-11-24T11:03:33.349Z,29.50
2022-11-24T11:06:16.289Z,28.00
2022-11-24T11:08:45.243Z,28.80
2022-11-24T11:11:27.682Z,25.00
2022-11-24T11:14:10.697Z,30.50
2022-11-24T11:16:49.623Z,31.20
2022-11-24T11:20:00.263Z,22.60
2022-11-24T11:22:33.173Z,31.50
2022-11-24T11:25:36.680Z,28.80
2022-11-24T11:28:19.053Z,30.90
2022-11-24T11:31:22.496Z,30.40
2022-11-24T11:34:04.567Z,29.00
2022-11-24T11:36:53.363Z,25.60
2022-11-24T11:39:45.394Z,27.90
2022-11-24T11:43:06.503Z,30.60
2022-11-24T11:45:45.925Z,27.50
2022-11-24T11:48:26.911Z,30.40
2022-11-24T11:55:01.502Z,30.20
2022-11-24T11:58:06.715Z,27.90
2022-11-24T12:00:42.614Z,32.00
2022-11-24T12:03:17.623Z,29.00
2022-11-24T12:06:11.762Z,28.40
2022-11-24T12:09:21.015Z,33.50
2022-11-24T12:12:46.776Z,31.00
2022-11-24T12:15:32.163Z,31.50
2022-11-24T12:18:55.122Z,29.30
2022-11-24T12:21:37.286Z,29.00
2022-11-24T12:24:45.088Z,29.20
2022-11-24T12:27:47.842Z,30.80
2022-11-24T12:30:22.683Z,31.20
2022-11-24T12:33:11.658Z,28.30
2022-11-24T12:36:08.583Z,28.60
2022-11-24T12:39:07.382Z,28.80
2022-11-24T12:42:52.922Z,27.90
2022-11-24T12:45:39.430Z,29.40
2022-11-24T12:48:24.722Z,27.00
2022-11-24T12:50:56.623Z,28.70
2022-11-24T12:53:32.500Z,27.70
2022-11-24T12:56:10.061Z,31.00
2022-11-24T12:59:22.222Z,29.60
2022-11-24T13:02:48.231Z,32.00
2022-11-24T13:05:23.783Z,30.00
2022-11-24T13:08:01.947Z,32.00
2022-11-24T13:13:27.067Z,27.80
2022-11-24T13:19:09.380Z,30.70
2022-11-24T13:21:41.222Z,27.40
2022-11-24T13:24:20.136Z,29.20
2022-11-24T13:26:54.025Z,29.40
2022-11-24T13:29:29.113Z,30.30
2022-11-24T13:32:21.409Z,33.10
2022-11-24T13:34:55.671Z,33.90
2022-11-24T13:37:34.620Z,35.10
2022-11-24T13:40:13.742Z,35.30
2022-11-24T13:42:58.031Z,35.30
2022-11-24T13:45:42.274Z,36.70
2022-11-24T13:48:20.541Z,34.40
2022-11-24T13:50:53.692Z,34.50
2022-11-24T13:53:49.533Z,34.00
2022-11-24T13:56:22.239Z,33.80
2022-11-24T13:58:57.249Z,33.10
2022-11-24T14:01:28.950Z,34.10
2022-11-24T14:04:29.915Z,34.00
2022-11-24T14:09:55.102Z,32.30
2022-11-24T14:12:27.267Z,37.00
2022-11-24T14:15:36.462Z,31.70
2022-11-24T14:18:22.420Z,33.70
2022-11-24T14:20:51.259Z,38.60
2022-11-24T14:23:20.050Z,37.40
2022-11-24T14:25:53.219Z,43.10
2022-11-24T14:28:31.295Z,39.30
2022-11-24T14:31:26.175Z,42.90
2022-11-24T14:34:17.132Z,41.70
2022-11-24T14:36:45.998Z,42.10
2022-11-24T14:39:19.002Z,38.50
2022-11-24T14:42:21.760Z,37.80
2022-11-24T14:45:03.410Z,39.60
2022-11-24T14:47:45.117Z,41.90
2022-11-24T14:50:19.812Z,44.40
2022-11-24T14:52:58.393Z,47.10
2022-11-24T14:55:33.439Z,49.10
2022-11-24T14:58:02.119Z,48.80
2022-11-24T15:00:33.851Z,48.90
2022-11-24T15:03:02.380Z,48.10
2022-11-24T15:05:55.064Z,47.60
2022-11-24T15:08:26.810Z,48.20
2022-11-24T15:11:04.822Z,45.40
2022-11-24T15:13:38.542Z,45.40
2022-11-24T15:16:16.398Z,45.40
2022-11-24T15:18:49.502Z,46.20
2022-11-24T15:21:34.701Z,45.20
2022-11-24T15:24:20.227Z,44.10
2022-11-24T15:26:48.791Z,45.30
2022-11-24T15:29:17.381Z,44.30
2022-11-24T15:31:51.002Z,44.80
2022-11-24T15:34:21.222Z,45.20
2022-11-24T15:36:49.940Z,43.60
2022-11-24T15:39:18.661Z,44.40
2022-11-24T15:41:47.341Z,42.20
2022-11-24T15:44:16.180Z,41.20
2022-11-24T15:46:44.854Z,41.60
2022-11-24T15:49:13.761Z,38.80
2022-11-24T15:51:46.381Z,39.70
2022-11-24T15:54:19.659Z,40.30
2022-11-24T15:56:48.421Z,39.20
2022-11-24T15:59:20.688Z,40.80
2022-11-24T16:01:51.151Z,38.60
2022-11-24T16:04:20.159Z,38.80
2022-11-24T16:06:49.181Z,40.40
2022-11-24T16:09:18.081Z,36.90
2022-11-24T16:11:46.733Z,38.40
2022-11-24T16:14:15.585Z,37.90
2022-11-24T16:16:44.638Z,35.10
2022-11-24T16:19:16.102Z,34.70
2022-11-24T16:21:49.020Z,34.00
2022-11-24T16:24:17.641Z,38.70
2022-11-24T16:26:46.307Z,44.40
2022-11-24T16:29:15.307Z,65.20
2022-11-24T16:31:44.799Z,50.40
2022-11-24T16:34:13.621Z,43.40
2022-11-24T16:36:42.251Z,57.70
2022-11-24T16:39:10.983Z,61.10
2022-11-24T16:41:39.521Z,57.50
2022-11-24T16:44:08.220Z,53.60
2022-11-24T16:46:36.843Z,48.20
2022-11-24T16:49:05.584Z,44.90
2022-11-24T16:51:35.165Z,42.40
2022-11-24T16:54:04.922Z,46.40
2022-11-24T16:56:33.742Z,40.90
2022-11-24T16:59:02.584Z,41.00
2022-11-24T17:01:33.178Z,40.60
2022-11-24T17:04:02.605Z,40.50
2022-11-24T17:06:33.901Z,42.70
2022-11-24T17:09:02.743Z,41.10
2022-11-24T17:11:31.682Z,41.30
2022-11-24T17:14:00.402Z,41.60
2022-11-24T17:16:29.848Z,42.60
2022-11-24T17:18:59.148Z,40.80
2022-11-24T17:21:28.940Z,42.20
2022-11-24T17:24:05.682Z,42.50
2022-11-24T17:26:35.640Z,43.50
2022-11-24T17:29:04.500Z,44.10
2022-11-24T17:31:36.182Z,45.10
2022-11-24T17:34:06.860Z,36.90
2022-11-24T17:36:36.410Z,39.00
2022-11-24T17:39:07.499Z,38.20
2022-11-24T17:41:36.620Z,35.50
2022-11-24T17:44:06.663Z,46.20
2022-11-24T17:46:37.460Z,50.30
2022-11-24T17:49:07.234Z,53.90
2022-11-24T17:51:36.022Z,50.90
2022-11-24T17:54:24.623Z,52.80
2022-11-24T17:56:53.742Z,49.30
2022-11-24T17:59:22.470Z,49.30
2022-11-24T18:01:51.110Z,56.50
2022-11-24T18:04:19.931Z,56.60
2022-11-24T18:06:48.620Z,59.30
2022-11-24T18:09:17.200Z,52.70
2022-11-24T18:11:48.201Z,57.90
2022-11-24T18:14:16.881Z,56.20
2022-11-24T18:16:45.675Z,56.90
2022-11-24T18:19:14.390Z,56.20
2022-11-24T18:21:46.906Z,61.20
2022-11-24T18:24:18.537Z,53.00
2022-11-24T18:26:50.866Z,58.80
2022-11-24T18:29:19.564Z,53.90
2022-11-24T18:31:48.363Z,54.70
2022-11-24T18:34:17.060Z,57.90
2022-11-24T18:36:47.861Z,50.70
2022-11-24T18:39:18.460Z,54.90
2022-11-24T18:41:47.899Z,53.20
2022-11-24T18:44:16.823Z,50.00
2022-11-24T18:46:45.640Z,56.30
2022-11-24T18:49:14.482Z,43.40
2022-11-24T18:51:43.905Z,38.00
2022-11-24T18:54:12.631Z,37.60
2022-11-24T18:56:41.342Z,37.30
2022-11-24T18:59:10.040Z,43.40
2022-11-24T19:01:38.717Z,43.90
2022-11-24T19:04:07.660Z,41.60
2022-11-24T19:06:38.520Z,43.10
2022-11-24T19:09:13.782Z,41.70
2022-11-24T19:11:47.622Z,43.40
2022-11-24T19:14:19.590Z,37.90
2022-11-24T19:16:48.597Z,37.50
2022-11-24T19:19:17.651Z,35.30
2022-11-24T19:21:46.426Z,36.20
2022-11-24T19:24:14.963Z,39.40
2022-11-24T19:26:43.621Z,42.40
2022-11-24T19:29:12.500Z,50.20
2022-11-24T19:31:41.608Z,47.00
2022-11-24T19:34:10.433Z,42.00
2022-11-24T19:36:41.201Z,39.00
2022-11-24T19:39:17.076Z,44.30
2022-11-24T19:41:46.023Z,54.00
2022-11-24T19:44:14.874Z,43.50
2022-11-24T19:46:43.540Z,55.20
2022-11-24T19:49:12.668Z,55.90
2022-11-24T19:51:41.651Z,54.00
2022-11-24T19:54:14.982Z,50.40
2022-11-24T19:56:43.740Z,45.10
2022-11-24T19:59:13.963Z,47.90
2022-11-24T20:01:42.872Z,56.20
2022-11-24T20:04:15.862Z,57.00
2022-11-24T20:06:47.482Z,55.60
2022-11-24T20:09:18.264Z,53.80
2022-11-24T20:11:48.900Z,53.80
2022-11-24T20:14:19.721Z,55.80
2022-11-24T20:16:48.915Z,53.70
2022-11-24T20:19:19.031Z,53.30
2022-11-24T20:21:49.780Z,53.90
2022-11-24T20:24:25.200Z,55.40
2022-11-24T20:26:58.635Z,55.70
2022-11-24T20:29:32.562Z,51.20
2022-11-24T20:32:01.673Z,51.10
2022-11-24T20:34:30.744Z,50.20
2022-11-24T20:36:59.741Z,55.40
2022-11-24T20:39:29.153Z,49.10
2022-11-24T20:41:58.560Z,52.50
2022-11-24T20:44:28.260Z,51.00
2022-11-24T20:47:00.602Z,50.60
2022-11-24T20:49:29.628Z,52.60
2022-11-24T20:51:58.500Z,43.90
2022-11-24T20:54:27.300Z,48.70
2022-11-24T20:56:56.311Z,65.60
2022-11-24T20:59:26.215Z,66.40
2022-11-24T21:01:59.767Z,59.20
2022-11-24T21:04:28.822Z,59.00
2022-11-24T21:06:58.120Z,60.90
2022-11-24T21:09:27.881Z,60.80
2022-11-24T21:11:56.820Z,53.40
2022-11-24T21:14:26.836Z,62.00
2022-11-24T21:16:58.090Z,63.50
2022-11-24T21:19:27.083Z,63.40
2022-11-24T21:21:55.962Z,54.70
2022-11-24T21:24:24.959Z,73.60
2022-11-24T21:26:53.860Z,74.00
2022-11-24T21:29:24.440Z,78.30
2022-11-24T21:31:53.309Z,72.20
2022-11-24T21:34:22.584Z,63.40
2022-11-24T21:36:51.676Z,70.80
2022-11-24T21:39:21.113Z,66.10
2022-11-24T21:41:50.259Z,62.20
2022-11-24T21:44:19.161Z,63.30
2022-11-24T21:46:54.375Z,61.60
2022-11-24T21:49:25.140Z,59.90
2022-11-24T21:51:56.230Z,62.80
2022-11-24T21:54:25.484Z,59.20
2022-11-24T21:56:54.881Z,61.70
2022-11-24T21:59:23.988Z,55.70
2022-11-24T22:01:52.911Z,56.80
2022-11-24T22:04:21.781Z,52.80
2022-11-24T22:06:53.523Z,52.20
2022-11-24T22:09:22.821Z,51.60
2022-11-24T22:11:53.154Z,51.50
2022-11-24T22:14:22.120Z,42.80
2022-11-24T22:16:51.185Z,53.90
2022-11-24T22:19:21.143Z,52.80
2022-11-24T22:21:49.939Z,55.60
2022-11-24T22:24:21.781Z,50.90
2022-11-24T22:26:55.292Z,51.50
2022-11-24T22:29:24.180Z,49.10
2022-11-24T22:31:52.835Z,50.20
2022-11-24T22:34:21.980Z,50.60
2022-11-24T22:36:50.871Z,51.90
2022-11-24T22:39:19.970Z,43.80
2022-11-24T22:41:48.640Z,45.90
2022-11-24T22:44:17.439Z,43.60
2022-11-24T22:46:46.600Z,45.90
2022-11-24T22:49:15.540Z,42.60
2022-11-24T22:51:45.143Z,42.90
2022-11-24T22:54:14.641Z,38.90
2022-11-24T22:56:43.520Z,32.80
2022-11-24T22:59:12.155Z,28.80
2022-11-24T23:01:40.960Z,29.20
2022-11-24T23:04:09.799Z,25.30
2022-11-24T23:06:38.860Z,27.60
2022-11-24T23:09:11.041Z,24.90
2022-11-24T23:11:41.801Z,24.50
2022-11-24T23:14:16.239Z,27.80
2022-11-24T23:16:45.137Z,23.50
2022-11-24T23:19:15.284Z,29.00
2022-11-24T23:21:44.191Z,28.70
2022-11-24T23:24:16.201Z,23.80
2022-11-24T23:26:44.973Z,31.80
2022-11-24T23:29:14.148Z,33.70
2022-11-24T23:31:43.100Z,32.30
2022-11-24T23:34:14.890Z,29.90
2022-11-24T23:36:43.824Z,33.20
2022-11-24T23:39:14.848Z,30.20
2022-11-24T23:41:43.926Z,32.20
2022-11-24T23:44:12.871Z,32.20
2022-11-24T23:46:41.713Z,30.60
2022-11-24T23:49:10.557Z,29.80
2022-11-24T23:51:42.339Z,32.20
2022-11-24T23:54:29.451Z,29.60
2022-11-24T23:56:58.319Z,29.20
2022-11-24T23:59:27.344Z,28.20
